createdAt,value
2017-07-23T00:00:58.256Z,26.41
2017-07-23T00:02:08.609Z,26.26
2017-07-23T00:03:18.641Z,26.34
2017-07-23T00:04:29.003Z,26.32
2017-07-23T00:05:39.364Z,26.27
2017-07-23T00:06:49.700Z,26.32
2017-07-23T00:07:59.756Z,26.23
2017-07-23T00:09:09.807Z,26.22
2017-07-23T00:10:20.156Z,26.16
2017-07-23T00:11:30.186Z,26.15
2017-07-23T00:12:40.219Z,26.15
2017-07-23T00:13:50.576Z,26.11
2017-07-23T00:15:00.943Z,26.06
2017-07-23T00:16:10.977Z,26.03
2017-07-23T00:17:21.511Z,26.04
2017-07-23T00:18:31.884Z,26.15
2017-07-23T00:19:42.241Z,26.09
2017-07-23T00:20:52.268Z,26.07
2017-07-23T00:22:02.621Z,26.03
2017-07-23T00:23:12.678Z,26
2017-07-23T00:24:23.019Z,26.03
2017-07-23T00:25:33.365Z,26.04
2017-07-23T00:26:43.730Z,26.01
2017-07-23T00:27:54.079Z,26.03
2017-07-23T00:29:04.108Z,26
2017-07-23T00:30:14.138Z,26.06
2017-07-23T00:31:24.730Z,26
2017-07-23T00:32:35.087Z,25.93
2017-07-23T00:33:45.428Z,26.03
2017-07-23T00:34:55.503Z,25.97
2017-07-23T00:36:05.965Z,25.94
2017-07-23T00:37:16.342Z,26.03
2017-07-23T00:38:26.389Z,26.01
2017-07-23T00:39:36.426Z,25.94
2017-07-23T00:40:46.465Z,25.91
2017-07-23T00:41:56.821Z,25.97
2017-07-23T00:43:07.170Z,25.97
2017-07-23T00:44:17.524Z,25.93
2017-07-23T00:45:27.866Z,25.96
2017-07-23T00:46:38.212Z,26.03
2017-07-23T00:47:48.284Z,25.94
2017-07-23T00:48:58.325Z,26.01
2017-07-23T00:50:08.406Z,25.97
2017-07-23T00:51:18.756Z,26.07
2017-07-23T00:52:29.109Z,25.99
2017-07-23T00:53:39.458Z,25.97
2017-07-23T00:54:49.791Z,26.01
2017-07-23T00:56:00.140Z,25.96
2017-07-23T00:57:10.485Z,25.93
2017-07-23T00:58:20.851Z,25.93
2017-07-23T00:59:30.900Z,25.94
2017-07-23T01:00:41.257Z,25.86
2017-07-23T01:01:51.620Z,25.84
2017-07-23T01:03:01.975Z,25.78
2017-07-23T01:04:12.003Z,25.85
2017-07-23T01:05:22.364Z,25.84
2017-07-23T01:06:32.716Z,25.75
2017-07-23T01:07:43.088Z,25.84
2017-07-23T01:08:53.110Z,25.85
2017-07-23T01:10:03.456Z,25.76
2017-07-23T01:11:13.810Z,25.89
2017-07-23T01:12:23.526Z,25.81
2017-07-23T01:13:33.543Z,25.88
2017-07-23T01:14:43.269Z,25.82
2017-07-23T01:15:53.304Z,25.86
2017-07-23T01:17:03.643Z,25.85
2017-07-23T01:18:13.981Z,25.86
2017-07-23T01:19:24.009Z,25.85
2017-07-23T01:20:34.043Z,25.97
2017-07-23T01:21:44.389Z,25.99
2017-07-23T01:22:54.735Z,25.96
2017-07-23T01:24:05.088Z,25.91
2017-07-23T01:25:15.444Z,25.97
2017-07-23T01:26:25.529Z,25.93
2017-07-23T01:27:35.250Z,25.89
2017-07-23T01:28:45.617Z,25.93
2017-07-23T01:29:55.964Z,25.82
2017-07-23T01:31:05.989Z,25.85
2017-07-23T01:32:16.035Z,25.85
2017-07-23T01:33:26.071Z,25.88
2017-07-23T01:34:36.150Z,25.79
2017-07-23T01:35:45.867Z,25.84
2017-07-23T01:36:55.953Z,25.79
2017-07-23T01:38:05.989Z,25.69
2017-07-23T01:39:16.344Z,25.81
2017-07-23T01:40:26.703Z,25.75
2017-07-23T01:41:36.741Z,25.71
2017-07-23T01:42:47.091Z,25.78
2017-07-23T01:43:57.415Z,25.82
2017-07-23T01:45:07.748Z,25.76
2017-07-23T01:46:18.103Z,25.59
2017-07-23T01:47:28.139Z,25.63
2017-07-23T01:48:38.525Z,25.7
2017-07-23T01:49:48.879Z,25.57
2017-07-23T01:50:59.248Z,25.64
2017-07-23T01:52:09.608Z,25.62
2017-07-23T01:53:19.954Z,25.57
2017-07-23T01:54:30.313Z,25.52
2017-07-23T01:55:40.345Z,25.52
2017-07-23T01:56:50.687Z,25.47
2017-07-23T01:58:00.729Z,25.47
2017-07-23T01:59:10.447Z,25.41
2017-07-23T02:00:20.796Z,25.44
2017-07-23T02:01:31.134Z,25.41
2017-07-23T02:02:41.476Z,25.42
2017-07-23T02:03:51.207Z,25.47
2017-07-23T02:05:01.568Z,25.41
2017-07-23T02:06:11.607Z,25.41
2017-07-23T02:07:21.954Z,25.49
2017-07-23T02:08:32.314Z,25.44
2017-07-23T02:09:42.653Z,25.41
2017-07-23T02:10:52.688Z,25.42
2017-07-23T02:12:02.765Z,25.42
2017-07-23T02:13:13.121Z,25.48
2017-07-23T02:14:23.478Z,25.32
2017-07-23T02:15:32.887Z,25.34
2017-07-23T02:16:43.264Z,25.26
2017-07-23T02:17:53.346Z,25.33
2017-07-23T02:19:03.685Z,25.29
2017-07-23T02:20:14.279Z,25.3
2017-07-23T02:21:24.637Z,25.3
2017-07-23T02:22:34.672Z,25.27
2017-07-23T02:23:45.062Z,25.29
2017-07-23T02:24:55.399Z,25.27
2017-07-23T02:26:05.747Z,25.12
2017-07-23T02:27:16.105Z,25.19
2017-07-23T02:28:26.153Z,25.12
2017-07-23T02:29:36.563Z,25.07
2017-07-23T02:30:46.903Z,25.01
2017-07-23T02:31:57.239Z,25.01
2017-07-23T02:33:07.282Z,25
2017-07-23T02:34:17.630Z,25.08
2017-07-23T02:35:27.969Z,25.02
2017-07-23T02:36:38.335Z,25.05
2017-07-23T02:37:48.694Z,25
2017-07-23T02:38:59.036Z,24.94
2017-07-23T02:40:09.385Z,25.01
2017-07-23T02:41:19.461Z,25.02
2017-07-23T02:42:29.808Z,25
2017-07-23T02:43:40.166Z,24.93
2017-07-23T02:44:50.199Z,24.87
2017-07-23T02:46:00.557Z,24.89
2017-07-23T02:47:10.932Z,24.87
2017-07-23T02:48:21.274Z,24.9
2017-07-23T02:49:31.619Z,24.86
2017-07-23T02:50:41.961Z,24.86
2017-07-23T02:51:52.019Z,24.89
2017-07-23T02:53:02.036Z,24.8
2017-07-23T02:54:12.385Z,24.83
2017-07-23T02:55:22.438Z,24.86
2017-07-23T02:56:32.793Z,24.86
2017-07-23T02:57:42.828Z,24.8
2017-07-23T02:58:53.190Z,24.83
2017-07-23T03:00:03.527Z,24.77
2017-07-23T03:01:13.252Z,24.69
2017-07-23T03:33:09.052Z,21.83
2017-07-23T03:34:19.382Z,21.9
2017-07-23T03:35:29.397Z,21.78
2017-07-23T03:36:39.127Z,21.82
2017-07-23T03:37:49.482Z,21.89
2017-07-23T03:38:59.871Z,22
2017-07-23T03:40:09.581Z,22.09
2017-07-23T03:41:19.922Z,22.34
2017-07-23T03:42:29.962Z,22.44
2017-07-23T03:43:40.288Z,22.61
2017-07-23T03:44:50.316Z,22.73
2017-07-23T03:46:00.664Z,22.92
2017-07-23T03:47:10.730Z,22.99
2017-07-23T03:48:21.109Z,23.16
2017-07-23T03:49:31.450Z,23.26
2017-07-23T03:50:41.842Z,23.47
2017-07-23T03:51:52.181Z,23.56
2017-07-23T03:53:02.524Z,23.62
2017-07-23T03:54:12.866Z,23.81
2017-07-23T03:55:23.209Z,23.9
2017-07-23T03:56:33.588Z,24.07
2017-07-23T03:57:43.953Z,24.18
2017-07-23T03:58:54.306Z,24.36
2017-07-23T04:00:04.659Z,24.44
2017-07-23T04:01:14.699Z,24.58
2017-07-23T04:02:25.096Z,24.74
2017-07-23T04:03:35.454Z,24.78
2017-07-23T04:04:45.786Z,24.89
2017-07-23T04:05:56.129Z,24.94
2017-07-23T04:07:06.476Z,25.12
2017-07-23T04:08:16.875Z,25.17
2017-07-23T04:09:27.222Z,25.26
2017-07-23T04:10:37.549Z,25.34
2017-07-23T04:11:47.888Z,25.48
2017-07-23T04:12:57.927Z,25.45
2017-07-23T04:14:07.406Z,25.54
2017-07-23T04:15:17.761Z,25.62
2017-07-23T04:16:28.099Z,25.64
2017-07-23T04:17:38.119Z,25.74
2017-07-23T04:18:48.468Z,25.75
2017-07-23T04:19:58.569Z,25.69
2017-07-23T04:21:08.941Z,25.79
2017-07-23T04:22:19.314Z,25.88
2017-07-23T04:23:29.342Z,25.89
2017-07-23T04:24:39.367Z,26.03
2017-07-23T04:25:49.778Z,25.99
2017-07-23T04:27:00.117Z,26.09
2017-07-23T04:28:10.476Z,26.37
2017-07-23T04:29:20.827Z,27.13
2017-07-23T04:30:30.861Z,28.05
2017-07-23T04:31:41.223Z,28.45
2017-07-23T04:32:51.598Z,27.98
2017-07-23T04:34:01.630Z,27.55
2017-07-23T04:35:11.971Z,27.33
2017-07-23T04:36:21.684Z,27.23
2017-07-23T04:37:32.021Z,27.15
2017-07-23T04:38:42.047Z,27.11
2017-07-23T04:39:52.389Z,27.13
2017-07-23T04:41:02.747Z,27.18
2017-07-23T04:42:12.773Z,27.24
2017-07-23T04:43:22.512Z,27.23
2017-07-23T04:44:32.552Z,27.31
2017-07-23T04:45:42.897Z,27.38
2017-07-23T04:46:53.246Z,27.42
2017-07-23T04:48:03.580Z,27.46
2017-07-23T04:49:13.981Z,27.49
2017-07-23T04:50:24.345Z,27.45
2017-07-23T04:51:34.079Z,27.42
2017-07-23T04:52:44.436Z,27.37
2017-07-23T04:53:54.493Z,27.36
2017-07-23T04:55:04.851Z,27.38
2017-07-23T04:56:15.224Z,27.37
2017-07-23T04:57:25.572Z,27.53
2017-07-23T04:58:35.917Z,27.48
2017-07-23T04:59:46.245Z,27.66
2017-07-23T05:00:56.590Z,27.84
2017-07-23T05:02:06.941Z,28.42
2017-07-23T05:03:17.309Z,29.54
2017-07-23T05:04:27.338Z,30.54
2017-07-23T05:05:36.429Z,30.25
2017-07-23T05:06:46.810Z,29.67
2017-07-23T05:07:57.157Z,29.3
2017-07-23T05:09:07.497Z,29.06
2017-07-23T05:10:17.527Z,29.17
2017-07-23T05:11:27.573Z,29.66
2017-07-23T05:12:37.909Z,29.87
2017-07-23T05:13:47.934Z,29.51
2017-07-23T05:14:58.274Z,29.4
2017-07-23T05:16:08.635Z,29.11
2017-07-23T05:17:18.677Z,28.92
2017-07-23T05:18:29.018Z,28.78
2017-07-23T05:19:39.069Z,28.64
2017-07-23T05:20:49.454Z,28.67
2017-07-23T05:21:59.493Z,28.6
2017-07-23T05:23:09.519Z,28.57
2017-07-23T05:24:19.917Z,28.48
2017-07-23T05:25:30.273Z,28.49
2017-07-23T05:26:40.645Z,28.46
2017-07-23T05:27:50.701Z,28.41
2017-07-23T05:29:00.727Z,28.41
2017-07-23T05:30:11.081Z,28.46
2017-07-23T05:31:21.423Z,28.43
2017-07-23T05:32:31.779Z,28.46
2017-07-23T05:33:41.820Z,28.51
2017-07-23T05:34:52.177Z,28.54
2017-07-23T05:36:02.578Z,28.51
2017-07-23T05:37:12.908Z,28.49
2017-07-23T05:38:22.632Z,28.49
2017-07-23T05:39:32.653Z,28.51
2017-07-23T05:40:42.697Z,28.48
2017-07-23T05:41:53.109Z,28.43
2017-07-23T05:43:03.145Z,28.46
2017-07-23T05:44:13.176Z,28.41
2017-07-23T05:45:23.203Z,28.41
2017-07-23T05:46:33.549Z,28.48
2017-07-23T05:47:43.945Z,28.46
2017-07-23T05:48:54.299Z,28.49
2017-07-23T05:50:04.654Z,28.58
2017-07-23T05:51:15.016Z,28.65
2017-07-23T05:52:25.369Z,28.61
2017-07-23T05:53:35.717Z,28.73
2017-07-23T05:54:45.749Z,28.75
2017-07-23T05:55:55.783Z,28.83
2017-07-23T05:57:06.136Z,28.8
2017-07-23T05:58:16.492Z,28.65
2017-07-23T05:59:26.823Z,28.6
2017-07-23T06:00:37.178Z,28.43
2017-07-23T06:01:47.522Z,28.28
2017-07-23T06:02:57.870Z,28.3
2017-07-23T06:04:08.212Z,28.33
2017-07-23T06:05:18.614Z,28.17
2017-07-23T06:06:28.669Z,28.11
2017-07-23T06:07:39.012Z,28.16
2017-07-23T06:08:49.366Z,28.18
2017-07-23T06:09:59.721Z,28.12
2017-07-23T06:11:09.821Z,28.09
2017-07-23T06:12:20.154Z,28.14
2017-07-23T06:13:30.501Z,28.06
2017-07-23T06:14:40.871Z,28.03
2017-07-23T06:15:51.229Z,28.05
2017-07-23T06:17:01.559Z,27.91
2017-07-23T06:18:11.612Z,27.91
2017-07-23T06:19:21.650Z,28.01
2017-07-23T06:20:31.383Z,28.01
2017-07-23T06:21:41.101Z,28.01
2017-07-23T06:22:51.503Z,28.14
2017-07-23T06:24:01.857Z,28.11
2017-07-23T06:25:12.220Z,28.3
2017-07-23T06:26:22.585Z,28.36
2017-07-23T06:27:32.628Z,28.45
2017-07-23T06:28:43.018Z,28.55
2017-07-23T06:29:53.379Z,28.65
2017-07-23T06:31:03.421Z,28.8
2017-07-23T06:32:13.774Z,29.02
2017-07-23T06:33:24.149Z,29.2
2017-07-23T06:34:34.493Z,29.45
2017-07-23T06:35:44.834Z,29.79
2017-07-23T06:36:55.181Z,30.02
2017-07-23T06:38:04.922Z,30.37
2017-07-23T06:39:14.970Z,30.73
2017-07-23T06:40:25.304Z,30.86
2017-07-23T06:41:35.649Z,31.34
2017-07-23T06:42:46.023Z,31.86
2017-07-23T06:43:56.385Z,32.15
2017-07-23T06:45:06.438Z,32.46
2017-07-23T06:46:16.849Z,32.25
2017-07-23T06:47:27.226Z,31.87
2017-07-23T06:48:37.569Z,31.6
2017-07-23T06:49:47.612Z,31.41
2017-07-23T06:50:57.956Z,31.21
2017-07-23T06:52:08.311Z,31.08
2017-07-23T06:53:18.357Z,31.04
2017-07-23T06:54:28.698Z,30.99
2017-07-23T06:55:39.052Z,30.99
2017-07-23T06:56:49.397Z,30.84
2017-07-23T06:57:59.119Z,30.79
2017-07-23T06:59:09.485Z,30.75
2017-07-23T07:00:19.834Z,30.69
2017-07-23T07:01:29.881Z,30.7
2017-07-23T07:02:40.230Z,30.56
2017-07-23T07:03:50.267Z,30.47
2017-07-23T07:05:00.622Z,30.37
2017-07-23T07:06:10.660Z,30.18
2017-07-23T07:07:21.021Z,30.06
2017-07-23T07:08:31.058Z,30.09
2017-07-23T07:09:41.404Z,30.13
2017-07-23T07:10:51.765Z,30.06
2017-07-23T07:12:02.134Z,30.02
2017-07-23T07:13:12.485Z,29.98
2017-07-23T07:14:22.853Z,29.87
2017-07-23T07:15:32.898Z,29.73
2017-07-23T07:16:43.243Z,29.63
2017-07-23T07:17:53.599Z,29.43
2017-07-23T07:19:03.627Z,29.39
2017-07-23T07:20:13.658Z,29.28
2017-07-23T07:21:23.991Z,29.11
2017-07-23T07:22:34.336Z,29.05
2017-07-23T07:23:44.364Z,28.83
2017-07-23T07:24:54.712Z,28.91
2017-07-23T07:26:04.738Z,28.64
2017-07-23T07:27:14.855Z,28.51
2017-07-23T07:28:25.208Z,28.39
2017-07-23T07:29:35.562Z,28.35
2017-07-23T07:30:45.603Z,28.16
2017-07-23T07:31:55.964Z,28.17
2017-07-23T07:33:06.062Z,28.05
2017-07-23T07:34:16.413Z,27.94
2017-07-23T07:35:26.458Z,28.01
2017-07-23T07:36:36.806Z,28.02
2017-07-23T07:37:47.165Z,27.98
2017-07-23T07:38:57.206Z,28.03
2017-07-23T07:40:07.246Z,28.01
2017-07-23T07:41:16.976Z,27.99
2017-07-23T07:42:27.310Z,28.16
2017-07-23T07:43:37.370Z,28.09
2017-07-23T07:44:47.784Z,28.14
2017-07-23T07:45:58.151Z,28.08
2017-07-23T07:47:08.512Z,28.08
2017-07-23T07:48:18.868Z,28.11
2017-07-23T07:49:29.208Z,28.05
2017-07-23T07:50:39.626Z,27.98
2017-07-23T07:51:49.987Z,28.01
2017-07-23T07:53:00.347Z,27.99
2017-07-23T07:54:10.711Z,27.9
2017-07-23T07:55:21.064Z,27.89
2017-07-23T07:56:31.485Z,27.86
2017-07-23T07:57:41.917Z,27.87
2017-07-23T07:58:51.952Z,27.89
2017-07-23T08:00:02.300Z,27.86
2017-07-23T08:01:12.636Z,27.86
2017-07-23T08:02:23.056Z,28.02
2017-07-23T08:03:33.410Z,28.03
2017-07-23T08:04:43.762Z,28.14
2017-07-23T08:05:54.130Z,28.21
2017-07-23T08:07:04.196Z,28.45
2017-07-23T08:08:14.635Z,28.55
2017-07-23T08:09:24.720Z,28.85
2017-07-23T08:10:35.091Z,29.05
2017-07-23T08:11:45.125Z,29.33
2017-07-23T08:12:55.509Z,29.5
2017-07-23T08:14:05.614Z,29.75
2017-07-23T08:15:16.019Z,30.03
2017-07-23T08:16:26.365Z,30.16
2017-07-23T08:17:36.788Z,30.45
2017-07-23T08:18:47.144Z,30.86
2017-07-23T08:19:57.561Z,31.3
2017-07-23T08:21:07.969Z,31.44
2017-07-23T08:22:17.719Z,31.68
2017-07-23T08:23:28.110Z,32.01
2017-07-23T08:24:37.543Z,32.45
2017-07-23T08:25:47.650Z,32.79
2017-07-23T08:26:58.018Z,33.08
2017-07-23T08:28:08.420Z,33.29
2017-07-23T08:29:18.502Z,33.89
2017-07-23T08:30:28.553Z,34.34
2017-07-23T08:31:38.969Z,34.59
2017-07-23T08:32:49.014Z,34.91
2017-07-23T08:33:59.387Z,34.72
2017-07-23T08:35:09.770Z,34.61
2017-07-23T08:36:19.836Z,34.45
2017-07-23T08:37:30.011Z,34.29
2017-07-23T08:38:40.392Z,34.18
2017-07-23T08:39:50.771Z,34.05
2017-07-23T08:41:01.154Z,33.84
2017-07-23T08:42:11.532Z,33.65
2017-07-23T08:43:21.958Z,33.43
2017-07-23T08:44:32.325Z,33.08
2017-07-23T08:45:42.714Z,32.94
2017-07-23T08:46:53.108Z,32.67
2017-07-23T08:48:03.479Z,32.35
2017-07-23T08:49:13.532Z,32.17
2017-07-23T08:50:23.911Z,32.09
2017-07-23T08:51:33.983Z,32.12
2017-07-23T08:52:44.379Z,32.61
2017-07-23T08:53:54.793Z,33.02
2017-07-23T08:55:05.178Z,33.48
2017-07-23T08:56:15.580Z,33.73
2017-07-23T08:57:25.737Z,33.9
2017-07-23T08:58:36.255Z,34.06
2017-07-23T08:59:46.042Z,34.08
2017-07-23T09:00:56.419Z,34.15
2017-07-23T09:02:06.789Z,34.17
2017-07-23T09:03:16.857Z,34.12
2017-07-23T09:04:26.927Z,34.1
2017-07-23T09:05:36.981Z,34
2017-07-23T09:06:47.376Z,34.02
2017-07-23T09:07:57.435Z,33.9
2017-07-23T09:09:07.509Z,33.95
2017-07-23T09:10:17.886Z,33.95
2017-07-23T09:11:28.333Z,34.03
2017-07-23T09:12:38.725Z,34.05
2017-07-23T09:13:49.106Z,34.06
2017-07-23T09:14:58.841Z,33.92
2017-07-23T09:16:08.693Z,33.9
2017-07-23T09:17:18.788Z,33.73
2017-07-23T09:18:28.515Z,33.58
2017-07-23T09:19:38.950Z,33.75
2017-07-23T09:20:49.309Z,33.62
2017-07-23T09:21:59.387Z,33.62
2017-07-23T09:23:09.882Z,33.56
2017-07-23T09:24:20.260Z,33.46
2017-07-23T09:25:30.345Z,33.29
2017-07-23T09:26:40.397Z,33.36
2017-07-23T09:27:50.771Z,33.5
2017-07-23T09:29:01.202Z,33.63
2017-07-23T09:30:11.627Z,33.97
2017-07-23T09:31:21.979Z,34.24
2017-07-23T09:32:32.368Z,34.54
2017-07-23T09:33:42.408Z,34.71
2017-07-23T09:34:52.818Z,34.84
2017-07-23T09:36:03.208Z,34.83
2017-07-23T09:37:13.255Z,34.83
2017-07-23T09:38:23.626Z,34.83
2017-07-23T09:39:33.675Z,34.71
2017-07-23T09:40:43.717Z,34.43
2017-07-23T09:41:54.084Z,34.19
2017-07-23T09:43:04.159Z,34.21
2017-07-23T09:44:14.533Z,34.3
2017-07-23T09:45:24.915Z,34.37
2017-07-23T09:46:35.329Z,34.41
2017-07-23T09:47:45.725Z,34.56
2017-07-23T09:48:56.072Z,34.71
2017-07-23T09:50:06.111Z,34.9
2017-07-23T09:51:16.467Z,35.09
2017-07-23T09:52:26.916Z,34.9
2017-07-23T09:53:37.316Z,34.83
2017-07-23T09:54:47.679Z,34.61
2017-07-23T09:55:58.049Z,34.52
2017-07-23T09:57:08.099Z,34.33
2017-07-23T09:58:18.220Z,34.33
2017-07-23T09:59:28.810Z,34.48
2017-07-23T10:00:39.214Z,34.45
2017-07-23T10:01:49.298Z,34.4
2017-07-23T10:02:59.388Z,34.19
2017-07-23T10:04:09.437Z,34.17
2017-07-23T10:05:19.821Z,34.06
2017-07-23T10:06:29.866Z,34.14
2017-07-23T10:07:39.922Z,34.37
2017-07-23T10:08:50.291Z,34.46
2017-07-23T10:10:00.654Z,34.59
2017-07-23T10:11:11.022Z,34.66
2017-07-23T10:12:21.403Z,34.64
2017-07-23T10:13:31.820Z,34.55
2017-07-23T10:14:42.181Z,34.37
2017-07-23T10:15:51.653Z,34.26
2017-07-23T10:17:01.708Z,34.08
2017-07-23T10:18:12.077Z,34.11
2017-07-23T10:19:22.473Z,34.06
2017-07-23T10:20:32.879Z,34.22
2017-07-23T10:21:43.273Z,34.29
2017-07-23T10:22:53.324Z,34.32
2017-07-23T10:24:03.694Z,34.37
2017-07-23T10:25:14.050Z,34.36
2017-07-23T10:26:24.088Z,34.24
2017-07-23T10:27:34.153Z,34.18
2017-07-23T10:28:45.148Z,34.11
2017-07-23T10:29:55.206Z,33.97
2017-07-23T10:31:05.590Z,33.96
2017-07-23T10:32:15.332Z,33.89
2017-07-23T10:33:25.439Z,33.83
2017-07-23T10:34:35.494Z,33.8
2017-07-23T10:35:45.877Z,33.84
2017-07-23T10:36:55.629Z,33.84
2017-07-23T10:38:06.007Z,33.84
2017-07-23T10:39:16.424Z,34.03
2017-07-23T10:40:26.811Z,34.05
2017-07-23T10:41:37.174Z,33.99
2017-07-23T10:42:47.592Z,33.87
2017-07-23T10:43:57.625Z,33.89
2017-07-23T10:45:08.050Z,33.83
2017-07-23T10:46:18.408Z,33.9
2017-07-23T10:47:28.775Z,33.85
2017-07-23T10:48:39.166Z,33.95
2017-07-23T10:49:49.523Z,33.99
2017-07-23T10:50:59.595Z,34.02
2017-07-23T10:52:09.942Z,34.03
2017-07-23T10:53:20.306Z,34.11
2017-07-23T10:54:30.686Z,34.32
2017-07-23T10:55:41.060Z,34.83
2017-07-23T10:56:51.611Z,35.05
2017-07-23T10:58:01.340Z,35.24
2017-07-23T10:59:11.422Z,35.28
2017-07-23T11:00:21.775Z,35.23
2017-07-23T11:01:32.161Z,35.09
2017-07-23T11:02:42.278Z,34.74
2017-07-23T11:03:52.648Z,34.48
2017-07-23T11:05:02.702Z,34.69
2017-07-23T11:06:13.097Z,34.48
2017-07-23T11:07:23.484Z,34.12
2017-07-23T11:08:33.917Z,33.89
2017-07-23T11:09:43.975Z,33.73
2017-07-23T11:10:54.365Z,33.68
2017-07-23T11:12:04.734Z,34.06
2017-07-23T11:13:15.102Z,34.21
2017-07-23T11:14:25.938Z,34.45
2017-07-23T11:15:36.410Z,34.51
2017-07-23T11:16:46.818Z,34.66
2017-07-23T11:17:57.248Z,34.75
2017-07-23T11:19:07.628Z,34.79
2017-07-23T11:20:17.994Z,34.9
2017-07-23T11:21:28.362Z,34.99
2017-07-23T11:22:38.732Z,35.01
2017-07-23T11:23:49.105Z,34.94
2017-07-23T11:24:59.477Z,34.96
2017-07-23T11:26:09.586Z,34.81
2017-07-23T11:27:19.938Z,34.4
2017-07-23T11:28:29.672Z,34.05
2017-07-23T11:29:39.414Z,33.78
2017-07-23T11:30:49.469Z,33.84
2017-07-23T11:32:00.145Z,33.87
2017-07-23T11:33:10.514Z,33.75
2017-07-23T11:34:20.946Z,34.12
2017-07-23T11:35:31.399Z,34.33
2017-07-23T11:36:41.780Z,34.43
2017-07-23T11:37:51.861Z,34.55
2017-07-23T11:39:02.273Z,34.64
2017-07-23T11:40:12.471Z,34.74
2017-07-23T11:41:22.929Z,34.78
2017-07-23T11:42:33.369Z,34.87
2017-07-23T11:43:43.329Z,34.84
2017-07-23T11:44:53.481Z,34.83
2017-07-23T11:46:03.835Z,34.81
2017-07-23T11:47:14.191Z,34.97
2017-07-23T11:48:24.313Z,35.06
2017-07-23T11:49:34.731Z,35.09
2017-07-23T11:50:45.127Z,35.11
2017-07-23T11:51:55.493Z,35.16
2017-07-23T11:53:05.862Z,35.28
2017-07-23T11:54:16.221Z,35.38
2017-07-23T11:55:26.640Z,35.35
2017-07-23T11:56:36.999Z,35.43
2017-07-23T11:57:47.785Z,35.33
2017-07-23T11:58:58.219Z,35.38
2017-07-23T12:00:08.318Z,35.47
2017-07-23T12:01:18.958Z,35.57
2017-07-23T12:02:29.358Z,35.4
2017-07-23T12:03:39.779Z,35.27
2017-07-23T12:04:50.145Z,35.23
2017-07-23T12:06:00.245Z,35.3
2017-07-23T12:07:11.041Z,35.3
2017-07-23T12:08:21.464Z,35.39
2017-07-23T12:09:31.958Z,35.39
2017-07-23T12:10:42.351Z,35.47
2017-07-23T12:11:52.440Z,35.43
2017-07-23T12:13:02.866Z,35.5
2017-07-23T12:14:13.239Z,35.45
2017-07-23T12:15:23.818Z,35.4
2017-07-23T12:16:34.244Z,35.33
2017-07-23T12:17:44.631Z,35.16
2017-07-23T12:18:54.642Z,35.04
2017-07-23T12:20:05.021Z,35.05
2017-07-23T12:21:15.399Z,35.06
2017-07-23T12:22:25.780Z,35.16
2017-07-23T12:23:35.861Z,35.27
2017-07-23T12:24:46.280Z,35.33
2017-07-23T12:25:56.386Z,35.5
2017-07-23T12:27:06.744Z,35.77
2017-07-23T12:28:17.168Z,36.15
2017-07-23T12:29:27.288Z,36.36
2017-07-23T12:30:37.712Z,36.67
2017-07-23T12:31:48.085Z,36.89
2017-07-23T12:32:58.492Z,37.08
2017-07-23T12:34:08.861Z,37.26
2017-07-23T12:35:19.214Z,37.48
2017-07-23T12:36:29.927Z,37.68
2017-07-23T12:37:40.302Z,37.71
2017-07-23T12:38:50.396Z,37.86
2017-07-23T12:40:00.434Z,37.83
2017-07-23T12:41:10.835Z,37.86
2017-07-23T12:42:21.228Z,37.84
2017-07-23T12:43:31.282Z,37.76
2017-07-23T12:44:41.646Z,37.74
2017-07-23T12:45:51.688Z,37.71
2017-07-23T12:47:02.056Z,37.61
2017-07-23T12:48:12.141Z,37.45
2017-07-23T12:49:22.521Z,37.3
2017-07-23T12:50:32.587Z,37.11
2017-07-23T12:51:42.662Z,36.9
2017-07-23T12:52:53.065Z,36.37
2017-07-23T12:54:03.165Z,35.8
2017-07-23T12:55:13.258Z,35.33
2017-07-23T12:56:23.645Z,34.97
2017-07-23T12:57:33.710Z,34.69
2017-07-23T12:58:44.363Z,34.4
2017-07-23T12:59:54.129Z,34.41
2017-07-23T13:01:04.498Z,34.32
2017-07-23T13:02:14.899Z,34.4
2017-07-23T13:03:24.946Z,34.4
2017-07-23T13:04:35.046Z,34.54
2017-07-23T13:05:45.140Z,34.59
2017-07-23T13:06:55.605Z,34.9
2017-07-23T13:08:06.001Z,35.16
2017-07-23T13:09:16.108Z,35.38
2017-07-23T13:10:26.491Z,35.58
2017-07-23T13:11:36.605Z,35.58
2017-07-23T13:12:46.700Z,35.67
2017-07-23T13:13:57.055Z,35.82
2017-07-23T13:15:07.476Z,35.95
2017-07-23T13:16:17.910Z,35.99
2017-07-23T13:17:28.327Z,35.96
2017-07-23T13:18:38.695Z,35.95
2017-07-23T13:19:49.076Z,35.79
2017-07-23T13:20:59.498Z,35.69
2017-07-23T13:22:09.941Z,35.65
2017-07-23T13:23:20.355Z,35.67
2017-07-23T13:24:30.713Z,35.64
2017-07-23T13:25:41.098Z,35.62
2017-07-23T13:26:51.470Z,35.52
2017-07-23T13:28:01.967Z,35.6
2017-07-23T13:29:12.054Z,35.46
2017-07-23T13:30:22.433Z,35.43
2017-07-23T13:31:32.199Z,35.47
2017-07-23T13:32:42.615Z,35.5
2017-07-23T13:33:52.747Z,35.67
2017-07-23T13:35:02.488Z,35.82
2017-07-23T13:36:12.849Z,35.77
2017-07-23T13:37:22.947Z,35.94
2017-07-23T13:38:33.325Z,35.96
2017-07-23T13:39:43.681Z,36.04
2017-07-23T13:40:53.725Z,36.09
2017-07-23T13:42:04.400Z,36.08
2017-07-23T13:43:14.818Z,35.99
2017-07-23T13:44:24.884Z,35.96
2017-07-23T13:45:35.351Z,35.87
2017-07-23T13:46:45.408Z,35.79
2017-07-23T13:47:55.827Z,35.79
2017-07-23T13:49:06.208Z,35.62
2017-07-23T13:50:16.600Z,35.53
2017-07-23T13:51:27.048Z,35.58
2017-07-23T13:52:37.131Z,35.58
2017-07-23T13:53:47.185Z,35.52
2017-07-23T13:54:57.278Z,35.55
2017-07-23T13:56:07.335Z,35.52
2017-07-23T13:57:17.769Z,35.43
2017-07-23T13:58:28.150Z,35.43
2017-07-23T13:59:38.511Z,35.42
2017-07-23T14:00:48.896Z,35.35
2017-07-23T14:01:58.974Z,35.38
2017-07-23T14:03:09.399Z,35.34
2017-07-23T14:04:19.778Z,35.33
2017-07-23T14:05:29.868Z,35.38
2017-07-23T14:06:40.281Z,35.35
2017-07-23T14:07:50.659Z,35.23
2017-07-23T14:09:01.134Z,35.21
2017-07-23T14:10:11.200Z,35.27
2017-07-23T14:11:21.263Z,35.21
2017-07-23T14:12:31.346Z,35.06
2017-07-23T14:13:41.738Z,35.11
2017-07-23T14:14:51.794Z,35.2
2017-07-23T14:16:01.542Z,35.18
2017-07-23T14:17:11.925Z,35.2
2017-07-23T14:18:22.293Z,35.11
2017-07-23T14:19:32.381Z,35.06
2017-07-23T14:20:42.531Z,34.99
2017-07-23T14:21:52.913Z,35.02
2017-07-23T14:23:03.313Z,35.04
2017-07-23T14:24:13.668Z,35.02
2017-07-23T14:25:23.723Z,35.05
2017-07-23T14:26:34.186Z,35.08
2017-07-23T14:27:44.838Z,35.06
2017-07-23T14:28:55.232Z,35.06
2017-07-23T14:30:05.877Z,35.09
2017-07-23T14:31:15.982Z,35.06
2017-07-23T14:32:26.393Z,35.08
2017-07-23T14:33:36.767Z,35.09
2017-07-23T14:34:47.194Z,34.94
2017-07-23T14:35:57.572Z,34.94
2017-07-23T14:37:07.325Z,34.99
2017-07-23T14:38:17.739Z,35.01
2017-07-23T14:39:28.109Z,35.01
2017-07-23T14:40:38.493Z,35.06
2017-07-23T14:41:48.552Z,34.9
2017-07-23T14:42:58.651Z,34.97
2017-07-23T14:44:09.119Z,34.99
2017-07-23T14:45:19.198Z,34.9
2017-07-23T14:46:29.833Z,34.83
2017-07-23T14:47:40.180Z,34.83
2017-07-23T14:48:50.609Z,34.93
2017-07-23T14:50:00.369Z,34.97
2017-07-23T14:51:10.741Z,34.94
2017-07-23T14:52:20.793Z,35.02
2017-07-23T14:53:30.852Z,34.96
2017-07-23T14:54:41.224Z,34.99
2017-07-23T14:55:51.651Z,35.06
2017-07-23T14:57:02.048Z,35.06
2017-07-23T14:58:12.427Z,35.05
2017-07-23T14:59:22.473Z,35.05
2017-07-23T15:00:32.581Z,35.08
2017-07-23T15:01:42.973Z,35.08
2017-07-23T15:02:53.350Z,35.09
2017-07-23T15:04:03.752Z,35.15
2017-07-23T15:05:13.826Z,35.05
2017-07-23T15:06:24.230Z,34.99
2017-07-23T15:07:34.681Z,34.9
2017-07-23T15:08:45.070Z,35.01
2017-07-23T15:09:55.454Z,35.11
2017-07-23T15:11:05.849Z,35.11
2017-07-23T15:12:16.235Z,35.21
2017-07-23T15:13:26.664Z,35.26
2017-07-23T15:14:36.748Z,35.21
2017-07-23T15:15:46.798Z,35.16
2017-07-23T15:16:57.166Z,35.15
2017-07-23T15:18:07.553Z,35.12
2017-07-23T15:19:17.669Z,35.12
2017-07-23T15:20:27.729Z,35.08
2017-07-23T15:21:38.100Z,35.12
2017-07-23T15:22:48.491Z,35.16
2017-07-23T15:23:58.891Z,35.06
2017-07-23T15:25:09.305Z,34.99
2017-07-23T15:26:19.677Z,35.04
2017-07-23T15:27:29.747Z,35.09
2017-07-23T15:28:40.193Z,35.09
2017-07-23T15:29:50.543Z,34.96
2017-07-23T15:31:00.951Z,34.97
2017-07-23T15:32:11.368Z,34.89
2017-07-23T15:33:21.412Z,34.74
2017-07-23T15:34:31.775Z,34.52
2017-07-23T15:35:41.833Z,34.51
2017-07-23T15:36:52.273Z,34.45
2017-07-23T15:38:02.378Z,34.26
2017-07-23T15:39:12.448Z,34.21